Flight Track Log - Related Links

Times and Time Zones

All times are in EDT time to prevent confusion due to time zone crossing. See the N21315 flight status page for this flight to view local times or setup timezone preferences in your user account.

Time Position Orientation Groundspeed Altitude Reporting Facility
EDT Latitude Longitude Course Direction KTS MPH feet Rate Location/Type
Fri 03:13:34 PM 39.3667 -84.5000 123° Southeast 98 113 1,300  Level Cincinnati TRACON
Fri 03:14:52 PM 39.3500 -84.4667 123° Southeast 72 83 2,100 569 Climbing Cincinnati TRACON
Fri 03:15:30 PM 39.3514 -84.4528 83° East 75 86 2,400 367 Climbing Indianapolis Center
Fri 03:16:30 PM 39.3786 -84.4536 359° North 113 130 2,700 268 Climbing Indianapolis Center
Fri 03:17:22 PM 39.3964 -84.4717 322° Northwest 117 135 2,900 316 Climbing Indianapolis Center
Fri 03:18:24 PM 39.4197 -84.4956 322° Northwest 106 122 3,300 387 Climbing Indianapolis Center
Fri 03:19:26 PM 39.4425 -84.5206 320° Northwest 107 123 3,700 435 Climbing Indianapolis Center
Fri 03:20:28 PM 39.4661 -84.5464 320° Northwest 107 123 4,200 581 Climbing Indianapolis Center
Fri 03:21:30 PM 39.4925 -84.5767 318° Northwest 108 124 4,900 581 Climbing Indianapolis Center
Fri 03:22:32 PM 39.5136 -84.6003 319° Northwest 104 120 5,400 484 Climbing Indianapolis Center
Fri 03:23:34 PM 39.5389 -84.6239 324° Northwest 107 123 5,900 387 Climbing Indianapolis Center
Fri 03:24:36 PM 39.5653 -84.6475 325° Northwest 112 129 6,200 339 Climbing Indianapolis Center
Fri 03:25:38 PM 39.5931 -84.6728 325° Northwest 117 135 6,600 339 Climbing Indianapolis Center
Fri 03:26:40 PM 39.6194 -84.6972 324° Northwest 117 135 6,900 240 Climbing Indianapolis Center
Fri 03:27:43 PM 39.6450 -84.7222 323° Northwest 115 132 7,100 316 Climbing Indianapolis Center
Fri 03:28:53 PM 39.6767 -84.7547 322° Northwest 116 133 7,600 390 Climbing Indianapolis Center
Fri 03:29:46 PM 39.6997 -84.7772 323° Northwest 114 131 7,900 365 Climbing Indianapolis Center
Fri 03:30:48 PM 39.7250 -84.8050 320° Northwest 117 135 8,300 387 Climbing Indianapolis Center
Fri 03:31:50 PM 39.7506 -84.8319 321° Northwest 117 135 8,700 290 Climbing Indianapolis Center
Fri 03:32:52 PM 39.7789 -84.8492 335° Northwest 115 132 8,900 149 Climbing Indianapolis Center
Fri 03:33:51 PM 39.8211 -84.8567 352° North 140 161 9,000 50 Climbing Indianapolis Center
Fri 03:34:52 PM 39.8622 -84.8678 348° North 152 175 9,000  Level Indianapolis Center
Fri 03:35:58 PM 39.9006 -84.8772 349° North 150 173 9,000 49 Level Indianapolis Center
Fri 03:36:54 PM 39.9419 -84.8903 346° North 148 170 9,100 290 Climbing Indianapolis Center
Fri 03:38:02 PM 39.9811 -84.9003 349° North 143 165 9,600 422 Climbing Indianapolis Center
Fri 03:39:02 PM 40.0178 -84.9119 346° North 118 136 10,000 194 Climbing Indianapolis Center
Fri 03:40:06 PM 40.0556 -84.9231 347° North 126 145 10,000  Level Indianapolis Center
Fri 03:40:58 PM 40.0936 -84.9336 348° North 156 180 10,000  Level Indianapolis Center
Fri 03:42:10 PM 40.1408 -84.9478 347° North 153 176 10,000  Level Indianapolis Center
Fri 03:43:12 PM 40.1828 -84.9592 348° North 154 177 10,000  Level Indianapolis Center
Fri 03:45:16 PM 40.2728 -84.9856 347° North 153 176 10,000  Level Chicago Center
Fri 03:46:18 PM 40.3156 -84.9978 348° North 155 178 10,000 49 Level Indianapolis Center
Fri 03:47:19 PM 40.3558 -85.0078 349° North 151 174 10,100  Climbing Indianapolis Center
Fri 03:48:21 PM 40.3953 -85.0175 349° North 146 168 10,000 -48 Descending Indianapolis Center
Fri 03:49:23 PM 40.4386 -85.0303 347° North 154 177 10,000  Level Indianapolis Center
Fri 03:50:25 PM 40.4786 -85.0433 346° North 152 175 10,000 48 Level Indianapolis Center
Fri 03:51:27 PM 40.5258 -85.0581 347° North 148 170 10,100 48 Climbing Indianapolis Center
Fri 03:52:29 PM 40.5547 -85.0933 317° Northwest 146 168 10,100 -48 Level Indianapolis Center
Fri 03:53:31 PM 40.5742 -85.1411 298° West 149 171 10,000 -48 Descending Indianapolis Center
Fri 03:54:33 PM 40.5869 -85.1917 288° West 148 170 10,000 -63 Level Indianapolis Center
Fri 03:55:06 PM 40.5981 -85.2242 294° West 147 169 9,900  Descending Chicago Center
Fri 03:55:35 PM 40.6017 -85.2378 289° West 146 168 10,000  Climbing Chicago Center
Fri 03:55:55 PM 40.6097 -85.2628 293° West 141 162 9,900 -97 Descending Chicago Center
Fri 03:56:37 PM 40.6144 -85.2836 287° West 139 160 9,900  Level Chicago Center
Fri 03:56:56 PM 40.6211 -85.3100 288° West 141 162 9,900 97 Level Chicago Center
Fri 03:57:39 PM 40.6308 -85.3419 292° West 140 161 10,000  Climbing Chicago Center
Fri 03:57:56 PM 40.6344 -85.3569 288° West 136 157 9,900  Descending Chicago Center
Fri 03:58:41 PM 40.6422 -85.3881 288° West 137 158 10,000  Climbing Chicago Center
Fri 03:58:57 PM 40.6458 -85.4039 287° West 136 157 9,900  Descending Chicago Center
Fri 03:59:43 PM 40.6511 -85.4342 283° West 133 153 10,000 56 Climbing Chicago Center
Fri 04:00:45 PM 40.6594 -85.4775 284° West 129 148 10,000 48 Level Chicago Center
Fri 04:01:47 PM 40.6767 -85.5242 296° West 135 155 10,100 48 Climbing Chicago Center
Fri 04:02:49 PM 40.6889 -85.5725 288° West 139 160 10,100 -90 Level Chicago Center
Fri 04:04:00 PM 40.7064 -85.6342 291° West 134 154 9,900  Descending Chicago Center
Fri 04:04:54 PM 40.7175 -85.6736 290° West 135 155 10,100 50 Climbing Chicago Center
Fri 04:06:01 PM 40.7308 -85.7314 287° West 144 166 10,000 -48 Descending Chicago Center
Fri 04:06:58 PM 40.7425 -85.7756 289° West 145 167 10,000  Level Chicago Center
Fri 04:08:00 PM 40.7581 -85.8236 293° West 145 167 10,000 -48 Level Chicago Center
Fri 04:09:03 PM 40.7725 -85.8817 288° West 142 163 9,900 48 Descending Chicago Center
Fri 04:10:04 PM 40.7811 -85.9208 286° West 138 159 10,100 99 Climbing Chicago Center
Fri 04:11:04 PM 40.7947 -85.9761 288° West 134 154 10,100 48 Level Chicago Center
Fri 04:12:08 PM 40.8089 -86.0256 291° West 141 162 10,200  Climbing Chicago Center
Fri 04:13:10 PM 40.8233 -86.0747 291° West 143 165 10,100 -102 Descending Chicago Center
Fri 04:14:06 PM 40.8381 -86.1239 292° West 143 165 10,000 -48 Descending Chicago Center
Fri 04:15:15 PM 40.8514 -86.1708 291° West 140 161 10,000 -50 Level Chicago Center
Fri 04:16:07 PM 40.8642 -86.2214 288° West 139 160 9,900  Descending Chicago Center
Fri 04:17:19 PM 40.8800 -86.2769 291° West 137 158 10,000  Climbing Chicago Center
Fri 04:18:09 PM 40.8903 -86.3164 289° West 138 159 9,900  Descending Chicago Center
Fri 04:19:09 PM 40.9072 -86.3669 294° West 140 161 10,000 44 Climbing Chicago Center
Fri 04:20:25 PM 40.9247 -86.4239 292° West 143 165 10,000 50 Level Chicago Center
Fri 04:21:10 PM 40.9333 -86.4647 286° West 140 161 10,100 97 Climbing Chicago Center
Fri 04:21:27 PM 40.9347 -86.4725 283° West 139 160 10,100 -76 Level Chicago Center
Fri 04:22:29 PM 40.9344 -86.5236 270° West 140 161 10,000 -48 Descending Chicago Center
Fri 04:23:31 PM 40.9381 -86.5764 275° West 144 166 10,000  Level Chicago Center
Fri 04:24:33 PM 40.9439 -86.6389 277° West 144 166 10,000 -48 Level Chicago Center
Fri 04:25:35 PM 40.9536 -86.6894 284° West 142 163 9,900 -96 Descending Chicago Center
Fri 04:26:38 PM 40.9669 -86.7422 289° West 150 173 9,800 48 Descending Chicago Center
Fri 04:27:40 PM 40.9858 -86.7864 300° West 140 161 10,000 97 Climbing Chicago Center
Fri 04:28:42 PM 41.0056 -86.8314 300° West 139 160 10,000 48 Level Chicago Center
Fri 04:29:44 PM 41.0269 -86.8867 297° West 140 161 10,100  Climbing Chicago Center
Fri 04:30:46 PM 41.0433 -86.9353 294° West 145 167 10,000 -48 Descending Chicago Center
Fri 04:31:48 PM 41.0625 -86.9850 297° West 150 173 10,000  Level Chicago Center
Fri 04:32:50 PM 41.0794 -87.0342 295° West 148 170 10,000  Level Chicago Center
Fri 04:33:52 PM 41.0950 -87.0822 293° West 144 166 10,000  Level Chicago Center
Fri 04:34:54 PM 41.1156 -87.1425 294° West 148 170 10,000  Level Chicago Center
Fri 04:35:56 PM 41.1297 -87.1967 289° West 154 177 10,000  Level Chicago Center
Fri 04:36:59 PM 41.1419 -87.2450 289° West 143 165 10,000 48 Level Chicago Center
Fri 04:38:01 PM 41.1514 -87.2931 285° West 137 158 10,100  Climbing Chicago Center
Fri 04:39:03 PM 41.1603 -87.3431 283° West 138 159 10,000  Descending Chicago Center
Fri 04:40:05 PM 41.1739 -87.3964 289° West 148 170 10,100 -97 Climbing Chicago Center
Fri 04:41:07 PM 41.1897 -87.4600 288° West 152 175 9,800 -339 Descending Chicago Center
Fri 04:42:09 PM 41.2039 -87.5125 290° West 151 174 9,400 -387 Descending Chicago Center
Fri 04:43:11 PM 41.2156 -87.5636 287° West 148 170 9,000 -435 Descending Chicago Center
Fri 04:44:13 PM 41.2275 -87.6147 287° West 145 167 8,500 -581 Descending Chicago Center
Fri 04:45:15 PM 41.2394 -87.6667 287° West 146 168 7,800 -774 Descending Chicago Center
Fri 04:46:17 PM 41.2558 -87.7319 288° West 153 176 6,900 -864 Descending Chicago Center
Fri 04:47:20 PM 41.2703 -87.7856 290° West 154 177 6,000 -960 Descending Chicago Center
Fri 04:48:22 PM 41.2914 -87.8364 299° West 158 182 4,900 -919 Descending Chicago Center
Fri 04:49:24 PM 41.3144 -87.8839 303° West 157 181 4,100 -435 Descending Chicago Center
Fri 04:50:26 PM 41.3356 -87.9297 302° West 152 175 4,000 -48 Descending Chicago Center
Fri 04:51:28 PM 41.3647 -87.9803 308° West 147 169 4,000 48 Level Chicago Center
Fri 04:52:30 PM 41.3881 -88.0219 307° West 144 166 4,100 97 Climbing Chicago Center
Fri 04:53:32 PM 41.4128 -88.0650 307° West 142 163 4,200  Climbing Chicago Center
Fri 04:54:34 PM 41.4386 -88.1086 308° West 143 165 4,100 -145 Descending Chicago Center
Fri 04:55:36 PM 41.4644 -88.1528 308° West 146 168 3,900 -97 Descending Chicago Center
Fri 04:56:38 PM 41.4883 -88.1969 306° West 148 170 3,900 48 Level Chicago Center
Fri 04:57:41 PM 41.5119 -88.2392 307° West 146 168 4,000 48 Climbing Chicago Center
Fri 04:58:43 PM 41.5308 -88.2842 299° West 142 163 4,000  Level Chicago Center
Fri 04:59:45 PM 41.5589 -88.3342 307° West 142 163 4,000  Level Chicago Center
Fri 05:00:47 PM 41.5922 -88.3633 327° Northwest 144 166 4,000  Level Chicago Center
Fri 05:01:49 PM 41.6253 -88.3939 325° Northwest 144 166 4,000  Level Chicago Center
Fri 05:02:51 PM 41.6578 -88.4231 326° Northwest 143 165 4,000 -48 Level Chicago Center
Fri 05:03:53 PM 41.6911 -88.4525 327° Northwest 143 165 3,900 -145 Descending Chicago Center
Fri 05:04:55 PM 41.7244 -88.4786 330° Northwest 142 163 3,700 -339 Descending Chicago Center
Fri 05:05:57 PM 41.7725 -88.4786 360° North 144 166 3,200 -387 Descending Chicago Center
Fri 05:06:59 PM 41.8103 -88.4806 358° North 140 161 2,900 -97 Descending Chicago Center
Fri 05:08:01 PM 41.8444 -88.4847 355° North 133 153 3,000 48 Climbing Chicago Center
Fri 05:09:03 PM 41.8764 -88.4881 356° North 124 143 3,000  Level Chicago Center
Fri 05:10:06 PM 41.9078 -88.4908 356° North 118 136 3,000  Level Chicago Center
Fri 05:11:08 PM 41.9467 -88.4928 358° North 116 133 3,000 48 Level Chicago Center
Fri 05:12:10 PM 41.9781 -88.4947 357° North 115 132 3,100  Climbing Chicago Center
Fri 05:13:12 PM 42.0100 -88.5019 350° North 116 133 3,000 -48 Descending Chicago Center
Fri 05:14:14 PM 42.0403 -88.5228 333° Northwest 120 138 3,000  Level Chicago Center
Fri 05:15:16 PM 42.0714 -88.5281 353° North 116 133 3,000  Level Chicago Center
Fri 05:16:18 PM 42.1072 -88.5256 North 110 127 3,000  Level Chicago Center
Fri 05:17:20 PM 42.1383 -88.5142 15° North 111 128 3,000  Level Chicago Center
Fri 05:18:22 PM 42.1686 -88.4897 31° Northeast 117 135 3,000 -48 Level Chicago Center
Fri 05:19:24 PM 42.1900 -88.4589 47° Northeast 115 132 2,900  Descending Chicago Center
Fri 05:20:26 PM 42.2114 -88.4278 47° Northeast 113 130 3,000 48 Climbing Chicago Center
Fri 05:21:28 PM 42.2275 -88.3922 59° Northeast 119 137 3,000 -48 Level Chicago Center
Fri 05:22:30 PM 42.2339 -88.3478 79° East 108 124 2,900 -48 Descending Chicago Center
Fri 05:23:32 PM 42.2408 -88.3111 76° East 105 121 2,900  Level Chicago Center
Fri 05:24:34 PM 42.2469 -88.2750 77° East 102 117 2,900  Level Chicago Center
Fri 05:25:36 PM 42.2536 -88.2408 75° East 99 114 2,900  Level Chicago Center
Fri 05:26:38 PM 42.2594 -88.2092 76° East 95 109 2,900 -194 Level Chicago Center
Fri 05:27:40 PM 42.2650 -88.1750 78° East 93 107 2,500 -339 Descending Chicago Center
Fri 05:28:42 PM 42.2697 -88.1278 82° East 98 113 2,200 -97 Descending Chicago Center
Fri 05:29:44 PM 42.2750 -88.0931 78° East 99 114 2,300 48 Climbing Chicago Center
Fri 05:30:46 PM 42.2792 -88.0544 82° East 99 114 2,300 48 Level Chicago Center
Fri 05:31:48 PM 42.2781 -88.0250 93° East 91 105 2,400  Climbing Chicago Center
Fri 05:32:50 PM 42.2678 -87.9964 116° Southeast 86 99 2,300 -48 Descending Chicago Center
Fri 05:33:52 PM 42.2464 -87.9703 138° Southeast 87 100 2,300 -48 Level Chicago Center
Fri 05:34:54 PM 42.2242 -87.9603 162° South 87 100 2,200 -97 Descending Chicago Center
Fri 05:35:56 PM 42.2036 -87.9508 161° South 83 96 2,100 -97 Descending Chicago Center
Fri 05:36:58 PM 42.1828 -87.9403 159° South 81 93 2,000 -145 Descending Chicago Center
Fri 05:38:00 PM 42.1653 -87.9311 159° South 79 91 1,800 -194 Descending Chicago Center

Login

Don't have an account? Register now (free) for customized features, flight alerts, and more!